sensor_id;sensor_type;location;lat;lon;timestamp;pressure;altitude;pressure_sealevel;temperature;humidity
63907;BME280;50075;49.484;11.238;2023-01-29T00:00:05;99074.38;;;3.11;100.00
63907;BME280;50075;49.484;11.238;2023-01-29T00:02:37;99077.31;;;4.02;100.00
63907;BME280;50075;49.484;11.238;2023-01-29T00:05:03;99075.28;;;3.72;100.00
63907;BME280;50075;49.484;11.238;2023-01-29T00:07:30;99062.66;;;3.57;100.00
63907;BME280;50075;49.484;11.238;2023-01-29T00:09:55;99079.38;;;2.88;100.00
63907;BME280;50075;49.484;11.238;2023-01-29T00:12:21;99072.56;;;2.51;100.00
63907;BME280;50075;49.484;11.238;2023-01-29T00:14:46;99077.91;;;3.13;100.00
63907;BME280;50075;49.484;11.238;2023-01-29T00:17:11;99074.25;;;2.88;100.00
63907;BME280;50075;49.484;11.238;2023-01-29T00:19:37;99066.47;;;2.86;100.00
63907;BME280;50075;49.484;11.238;2023-01-29T00:22:02;99061.81;;;3.80;100.00
63907;BME280;50075;49.484;11.238;2023-01-29T00:24:28;99074.09;;;2.47;100.00
63907;BME280;50075;49.484;11.238;2023-01-29T00:26:53;99071.78;;;2.71;100.00
63907;BME280;50075;49.484;11.238;2023-01-29T00:29:19;99071.13;;;2.76;100.00
63907;BME280;50075;49.484;11.238;2023-01-29T00:31:46;99052.78;;;2.88;100.00
63907;BME280;50075;49.484;11.238;2023-01-29T00:34:11;99066.13;;;2.41;100.00
63907;BME280;50075;49.484;11.238;2023-01-29T00:36:36;99064.78;;;1.94;100.00
63907;BME280;50075;49.484;11.238;2023-01-29T00:39:02;99058.44;;;2.60;100.00
63907;BME280;50075;49.484;11.238;2023-01-29T00:41:35;99064.22;;;2.75;100.00
63907;BME280;50075;49.484;11.238;2023-01-29T00:44:19;99060.53;;;2.50;100.00
63907;BME280;50075;49.484;11.238;2023-01-29T00:47:03;99048.28;;;2.44;100.00
63907;BME280;50075;49.484;11.238;2023-01-29T00:49:49;99050.25;;;2.50;100.00
63907;BME280;50075;49.484;11.238;2023-01-29T00:52:14;99051.59;;;2.41;100.00
63907;BME280;50075;49.484;11.238;2023-01-29T00:54:50;99047.72;;;2.69;100.00
63907;BME280;50075;49.484;11.238;2023-01-29T00:57:15;99042.66;;;2.91;100.00
63907;BME280;50075;49.484;11.238;2023-01-29T00:59:41;99055.22;;;2.65;100.00
63907;BME280;50075;49.484;11.238;2023-01-29T01:02:07;99049.31;;;3.46;100.00
63907;BME280;50075;49.484;11.238;2023-01-29T01:04:51;99038.91;;;3.43;100.00
63907;BME280;50075;49.484;11.238;2023-01-29T01:07:16;99042.50;;;3.68;100.00
63907;BME280;50075;49.484;11.238;2023-01-29T01:09:41;99032.44;;;4.17;100.00
63907;BME280;50075;49.484;11.238;2023-01-29T01:12:26;99048.38;;;3.24;100.00
63907;BME280;50075;49.484;11.238;2023-01-29T01:14:52;99043.75;;;3.16;100.00
63907;BME280;50075;49.484;11.238;2023-01-29T01:17:17;99048.50;;;3.06;100.00
63907;BME280;50075;49.484;11.238;2023-01-29T01:19:43;99055.94;;;2.80;100.00
63907;BME280;50075;49.484;11.238;2023-01-29T01:22:08;99058.78;;;3.06;100.00
63907;BME280;50075;49.484;11.238;2023-01-29T01:24:33;99054.03;;;2.38;100.00
63907;BME280;50075;49.484;11.238;2023-01-29T01:26:59;99059.59;;;2.29;100.00
63907;BME280;50075;49.484;11.238;2023-01-29T01:29:24;99060.00;;;1.66;100.00
63907;BME280;50075;49.484;11.238;2023-01-29T01:31:52;99053.94;;;2.75;100.00
63907;BME280;50075;49.484;11.238;2023-01-29T01:34:17;99043.75;;;2.76;100.00
63907;BME280;50075;49.484;11.238;2023-01-29T01:36:43;99049.50;;;2.52;100.00
63907;BME280;50075;49.484;11.238;2023-01-29T01:39:08;99044.19;;;2.67;100.00
63907;BME280;50075;49.484;11.238;2023-01-29T01:41:34;99048.53;;;1.94;100.00
63907;BME280;50075;49.484;11.238;2023-01-29T01:44:01;99050.97;;;2.65;100.00
63907;BME280;50075;49.484;11.238;2023-01-29T01:46:35;99056.94;;;2.84;100.00
63907;BME280;50075;49.484;11.238;2023-01-29T01:49:19;99057.75;;;1.90;100.00
63907;BME280;50075;49.484;11.238;2023-01-29T01:51:48;99057.09;;;1.41;100.00
63907;BME280;50075;49.484;11.238;2023-01-29T01:54:22;99051.75;;;2.26;100.00
63907;BME280;50075;49.484;11.238;2023-01-29T01:56:52;99045.16;;;2.13;100.00
63907;BME280;50075;49.484;11.238;2023-01-29T01:59:21;99050.25;;;1.07;100.00
63907;BME280;50075;49.484;11.238;2023-01-29T02:01:50;99054.00;;;1.65;100.00
63907;BME280;50075;49.484;11.238;2023-01-29T02:04:23;99051.59;;;1.17;100.00
63907;BME280;50075;49.484;11.238;2023-01-29T02:07:11;99051.66;;;3.01;100.00
63907;BME280;50075;49.484;11.238;2023-01-29T02:10:09;99053.72;;;2.50;100.00
63907;BME280;50075;49.484;11.238;2023-01-29T02:12:36;99059.75;;;1.26;100.00
63907;BME280;50075;49.484;11.238;2023-01-29T02:15:03;99055.59;;;1.63;100.00
63907;BME280;50075;49.484;11.238;2023-01-29T02:17:30;99054.66;;;1.61;100.00
63907;BME280;50075;49.484;11.238;2023-01-29T02:25:18;99054.50;;;1.93;100.00
63907;BME280;50075;49.484;11.238;2023-01-29T02:30:35;99053.19;;;1.66;100.00
63907;BME280;50075;49.484;11.238;2023-01-29T02:33:15;99055.69;;;1.13;100.00
63907;BME280;50075;49.484;11.238;2023-01-29T02:41:34;99040.69;;;2.09;100.00
63907;BME280;50075;49.484;11.238;2023-01-29T02:46:54;99040.13;;;2.53;100.00
63907;BME280;50075;49.484;11.238;2023-01-29T02:49:29;99028.38;;;2.97;100.00
63907;BME280;50075;49.484;11.238;2023-01-29T02:52:14;99029.47;;;3.03;100.00
63907;BME280;50075;49.484;11.238;2023-01-29T02:54:46;99039.50;;;2.20;100.00
63907;BME280;50075;49.484;11.238;2023-01-29T02:57:21;99034.63;;;1.89;100.00
63907;BME280;50075;49.484;11.238;2023-01-29T02:59:56;99034.75;;;2.28;100.00
63907;BME280;50075;49.484;11.238;2023-01-29T03:02:31;99038.22;;;2.49;100.00
63907;BME280;50075;49.484;11.238;2023-01-29T03:05:02;99048.00;;;2.19;100.00
63907;BME280;50075;49.484;11.238;2023-01-29T03:07:33;99043.34;;;1.39;100.00
63907;BME280;50075;49.484;11.238;2023-01-29T03:10:30;99043.53;;;2.33;100.00
63907;BME280;50075;49.484;11.238;2023-01-29T03:13:05;99053.16;;;2.19;100.00
63907;BME280;50075;49.484;11.238;2023-01-29T03:15:37;99053.09;;;2.00;100.00
63907;BME280;50075;49.484;11.238;2023-01-29T03:18:21;99052.38;;;1.67;100.00
63907;BME280;50075;49.484;11.238;2023-01-29T03:20:54;99064.00;;;2.14;100.00
63907;BME280;50075;49.484;11.238;2023-01-29T03:23:28;99063.28;;;1.63;100.00
63907;BME280;50075;49.484;11.238;2023-01-29T03:26:14;99071.63;;;1.08;100.00
63907;BME280;50075;49.484;11.238;2023-01-29T03:28:59;99071.97;;;1.84;100.00
63907;BME280;50075;49.484;11.238;2023-01-29T03:31:46;99067.28;;;1.23;100.00
63907;BME280;50075;49.484;11.238;2023-01-29T03:34:39;99057.88;;;1.57;100.00
63907;BME280;50075;49.484;11.238;2023-01-29T03:39:38;99070.06;;;1.45;100.00
63907;BME280;50075;49.484;11.238;2023-01-29T03:42:11;99071.59;;;1.76;100.00
63907;BME280;50075;49.484;11.238;2023-01-29T03:49:48;99069.47;;;1.15;100.00
63907;BME280;50075;49.484;11.238;2023-01-29T03:52:25;99067.72;;;0.98;100.00
63907;BME280;50075;49.484;11.238;2023-01-29T03:54:57;99067.22;;;2.46;100.00
63907;BME280;50075;49.484;11.238;2023-01-29T03:58:03;99064.84;;;2.51;100.00
63907;BME280;50075;49.484;11.238;2023-01-29T04:00:31;99055.94;;;2.80;100.00
63907;BME280;50075;49.484;11.238;2023-01-29T04:05:32;99072.72;;;2.36;100.00
63907;BME280;50075;49.484;11.238;2023-01-29T04:08:07;99076.50;;;3.20;100.00
63907;BME280;50075;49.484;11.238;2023-01-29T04:10:34;99080.19;;;1.94;100.00
63907;BME280;50075;49.484;11.238;2023-01-29T04:13:09;99071.09;;;2.56;100.00
63907;BME280;50075;49.484;11.238;2023-01-29T04:15:40;99079.25;;;2.85;100.00
63907;BME280;50075;49.484;11.238;2023-01-29T04:18:08;99081.94;;;1.77;100.00
63907;BME280;50075;49.484;11.238;2023-01-29T04:20:34;99086.66;;;1.86;100.00
63907;BME280;50075;49.484;11.238;2023-01-29T04:22:59;99086.69;;;2.41;100.00
63907;BME280;50075;49.484;11.238;2023-01-29T04:25:33;99080.88;;;3.03;100.00
63907;BME280;50075;49.484;11.238;2023-01-29T04:31:07;99081.09;;;2.13;100.00
63907;BME280;50075;49.484;11.238;2023-01-29T04:33:57;99071.38;;;2.44;100.00
63907;BME280;50075;49.484;11.238;2023-01-29T04:44:55;99061.84;;;2.41;100.00
63907;BME280;50075;49.484;11.238;2023-01-29T04:47:35;99072.44;;;2.47;100.00
63907;BME280;50075;49.484;11.238;2023-01-29T04:53:09;99089.56;;;1.76;100.00
63907;BME280;50075;49.484;11.238;2023-01-29T04:58:13;99076.09;;;1.80;100.00
63907;BME280;50075;49.484;11.238;2023-01-29T05:00:42;99067.84;;;1.69;100.00
63907;BME280;50075;49.484;11.238;2023-01-29T05:03:11;99068.78;;;2.06;100.00
63907;BME280;50075;49.484;11.238;2023-01-29T05:05:40;99061.69;;;2.56;100.00
63907;BME280;50075;49.484;11.238;2023-01-29T05:08:08;99059.38;;;1.88;100.00
63907;BME280;50075;49.484;11.238;2023-01-29T05:10:36;99051.81;;;2.28;100.00
63907;BME280;50075;49.484;11.238;2023-01-29T05:13:04;99051.25;;;2.15;100.00
63907;BME280;50075;49.484;11.238;2023-01-29T05:15:47;99051.56;;;1.68;100.00
63907;BME280;50075;49.484;11.238;2023-01-29T05:18:14;99059.78;;;2.52;100.00
63907;BME280;50075;49.484;11.238;2023-01-29T05:20:42;99056.38;;;2.15;100.00
63907;BME280;50075;49.484;11.238;2023-01-29T05:23:15;99052.50;;;1.52;100.00
63907;BME280;50075;49.484;11.238;2023-01-29T05:25:40;99062.88;;;1.72;100.00
63907;BME280;50075;49.484;11.238;2023-01-29T05:28:06;99062.16;;;2.85;100.00
63907;BME280;50075;49.484;11.238;2023-01-29T05:30:34;99058.28;;;2.76;100.00
63907;BME280;50075;49.484;11.238;2023-01-29T05:33:00;99047.72;;;2.69;100.00
63907;BME280;50075;49.484;11.238;2023-01-29T05:35:26;99040.69;;;2.65;100.00
63907;BME280;50075;49.484;11.238;2023-01-29T05:37:54;99040.41;;;0.98;100.00
63907;BME280;50075;49.484;11.238;2023-01-29T05:40:20;99042.81;;;1.81;100.00
63907;BME280;50075;49.484;11.238;2023-01-29T05:42:45;99036.91;;;2.39;100.00
63907;BME280;50075;49.484;11.238;2023-01-29T05:45:10;99035.56;;;2.65;100.00
63907;BME280;50075;49.484;11.238;2023-01-29T05:47:36;99028.06;;;1.24;100.00
63907;BME280;50075;49.484;11.238;2023-01-29T05:50:01;99026.75;;;1.67;100.00
63907;BME280;50075;49.484;11.238;2023-01-29T05:52:26;99008.91;;;2.25;100.00
63907;BME280;50075;49.484;11.238;2023-01-29T05:54:52;99019.19;;;1.17;100.00
63907;BME280;50075;49.484;11.238;2023-01-29T05:57:17;99016.91;;;1.77;100.00
63907;BME280;50075;49.484;11.238;2023-01-29T05:59:42;99008.88;;;1.34;100.00
63907;BME280;50075;49.484;11.238;2023-01-29T06:02:08;99003.34;;;0.75;100.00
63907;BME280;50075;49.484;11.238;2023-01-29T06:04:33;99013.34;;;1.73;100.00
63907;BME280;50075;49.484;11.238;2023-01-29T06:06:58;99011.72;;;1.57;100.00
63907;BME280;50075;49.484;11.238;2023-01-29T06:09:25;99009.47;;;1.28;100.00
63907;BME280;50075;49.484;11.238;2023-01-29T06:11:50;99010.91;;;2.51;100.00
63907;BME280;50075;49.484;11.238;2023-01-29T06:14:15;99015.50;;;1.47;100.00
63907;BME280;50075;49.484;11.238;2023-01-29T06:16:41;99016.59;;;1.87;100.00
63907;BME280;50075;49.484;11.238;2023-01-29T06:19:06;99014.78;;;2.41;100.00
63907;BME280;50075;49.484;11.238;2023-01-29T06:21:32;99023.41;;;2.05;100.00
63907;BME280;50075;49.484;11.238;2023-01-29T06:23:57;99016.31;;;3.36;100.00
63907;BME280;50075;49.484;11.238;2023-01-29T06:26:22;99014.13;;;3.45;100.00
63907;BME280;50075;49.484;11.238;2023-01-29T06:28:48;99019.59;;;3.74;100.00
63907;BME280;50075;49.484;11.238;2023-01-29T06:31:14;99017.06;;;3.55;100.00
63907;BME280;50075;49.484;11.238;2023-01-29T06:33:40;99026.47;;;2.54;100.00
63907;BME280;50075;49.484;11.238;2023-01-29T06:36:05;99015.00;;;2.65;100.00
63907;BME280;50075;49.484;11.238;2023-01-29T06:38:31;99019.53;;;2.71;100.00
63907;BME280;50075;49.484;11.238;2023-01-29T06:40:56;99027.78;;;1.89;100.00
63907;BME280;50075;49.484;11.238;2023-01-29T06:43:22;99028.66;;;2.64;100.00
63907;BME280;50075;49.484;11.238;2023-01-29T06:45:56;99027.25;;;2.71;100.00
63907;BME280;50075;49.484;11.238;2023-01-29T06:48:23;99036.28;;;2.25;100.00
63907;BME280;50075;49.484;11.238;2023-01-29T06:50:48;99036.34;;;2.44;100.00
63907;BME280;50075;49.484;11.238;2023-01-29T06:53:14;99023.56;;;3.25;100.00
63907;BME280;50075;49.484;11.238;2023-01-29T06:55:40;99035.16;;;2.56;100.00
63907;BME280;50075;49.484;11.238;2023-01-29T06:58:08;99043.34;;;3.06;100.00
63907;BME280;50075;49.484;11.238;2023-01-29T07:00:34;99052.75;;;3.06;100.00
63907;BME280;50075;49.484;11.238;2023-01-29T07:03:00;99046.84;;;2.31;100.00
63907;BME280;50075;49.484;11.238;2023-01-29T07:05:25;99050.00;;;2.07;100.00
63907;BME280;50075;49.484;11.238;2023-01-29T07:07:50;99051.88;;;2.47;100.00
63907;BME280;50075;49.484;11.238;2023-01-29T07:10:16;99055.13;;;2.25;100.00
63907;BME280;50075;49.484;11.238;2023-01-29T07:12:41;99050.72;;;2.04;100.00
63907;BME280;50075;49.484;11.238;2023-01-29T07:15:07;99053.31;;;1.86;100.00
63907;BME280;50075;49.484;11.238;2023-01-29T07:17:32;99058.69;;;1.56;100.00
63907;BME280;50075;49.484;11.238;2023-01-29T07:19:58;99063.25;;;1.80;100.00
63907;BME280;50075;49.484;11.238;2023-01-29T07:22:23;99071.63;;;0.91;100.00
63907;BME280;50075;49.484;11.238;2023-01-29T07:24:48;99057.63;;;1.52;100.00
63907;BME280;50075;49.484;11.238;2023-01-29T07:27:14;99057.31;;;1.63;100.00
63907;BME280;50075;49.484;11.238;2023-01-29T07:29:39;99057.78;;;1.04;100.00
63907;BME280;50075;49.484;11.238;2023-01-29T07:32:05;99054.88;;;1.66;100.00
63907;BME280;50075;49.484;11.238;2023-01-29T07:34:32;99054.22;;;1.52;100.00
63907;BME280;50075;49.484;11.238;2023-01-29T07:36:57;99067.72;;;1.49;100.00
63907;BME280;50075;49.484;11.238;2023-01-29T07:39:23;99070.28;;;1.49;100.00
63907;BME280;50075;49.484;11.238;2023-01-29T07:41:48;99061.44;;;0.59;100.00
63907;BME280;50075;49.484;11.238;2023-01-29T07:44:14;99055.63;;;0.95;100.00
63907;BME280;50075;49.484;11.238;2023-01-29T07:46:39;99050.47;;;1.28;100.00
63907;BME280;50075;49.484;11.238;2023-01-29T07:49:04;99054.94;;;2.02;100.00
63907;BME280;50075;49.484;11.238;2023-01-29T07:51:30;99060.25;;;2.43;100.00
63907;BME280;50075;49.484;11.238;2023-01-29T07:53:55;99065.69;;;1.95;100.00
63907;BME280;50075;49.484;11.238;2023-01-29T07:56:20;99063.91;;;2.86;100.00
63907;BME280;50075;49.484;11.238;2023-01-29T07:58:46;99068.97;;;3.24;100.00
63907;BME280;50075;49.484;11.238;2023-01-29T08:01:11;99074.47;;;2.93;100.00
63907;BME280;50075;49.484;11.238;2023-01-29T08:03:36;99084.66;;;2.91;100.00
63907;BME280;50075;49.484;11.238;2023-01-29T08:06:02;99082.09;;;2.91;100.00
63907;BME280;50075;49.484;11.238;2023-01-29T08:08:28;99089.28;;;3.18;100.00
63907;BME280;50075;49.484;11.238;2023-01-29T08:10:53;99090.38;;;3.04;100.00
63907;BME280;50075;49.484;11.238;2023-01-29T08:13:18;99091.94;;;2.62;100.00
63907;BME280;50075;49.484;11.238;2023-01-29T08:15:44;99094.53;;;2.82;100.00
63907;BME280;50075;49.484;11.238;2023-01-29T08:18:10;99092.66;;;2.78;100.00
63907;BME280;50075;49.484;11.238;2023-01-29T08:20:36;99094.69;;;3.44;100.00
63907;BME280;50075;49.484;11.238;2023-01-29T08:23:05;99093.25;;;3.51;100.00
63907;BME280;50075;49.484;11.238;2023-01-29T08:25:31;99100.47;;;2.43;100.00
63907;BME280;50075;49.484;11.238;2023-01-29T08:27:57;99107.34;;;2.62;100.00
63907;BME280;50075;49.484;11.238;2023-01-29T08:30:31;99103.25;;;2.11;100.00
63907;BME280;50075;49.484;11.238;2023-01-29T08:32:57;99105.59;;;2.25;100.00
63907;BME280;50075;49.484;11.238;2023-01-29T08:35:23;99101.47;;;2.46;100.00
63907;BME280;50075;49.484;11.238;2023-01-29T08:37:52;99098.28;;;2.32;100.00
63907;BME280;50075;49.484;11.238;2023-01-29T08:40:18;99096.13;;;2.60;100.00
63907;BME280;50075;49.484;11.238;2023-01-29T08:42:43;99094.94;;;2.91;100.00
63907;BME280;50075;49.484;11.238;2023-01-29T08:45:09;99088.13;;;2.54;100.00
63907;BME280;50075;49.484;11.238;2023-01-29T08:47:35;99099.22;;;1.98;100.00
63907;BME280;50075;49.484;11.238;2023-01-29T08:50:00;99099.44;;;2.39;100.00
63907;BME280;50075;49.484;11.238;2023-01-29T08:52:25;99100.31;;;2.40;100.00
63907;BME280;50075;49.484;11.238;2023-01-29T08:54:51;99098.63;;;3.16;100.00
63907;BME280;50075;49.484;11.238;2023-01-29T08:57:16;99105.72;;;3.83;100.00
63907;BME280;50075;49.484;11.238;2023-01-29T08:59:41;99108.22;;;3.40;100.00
63907;BME280;50075;49.484;11.238;2023-01-29T09:02:08;99094.84;;;4.11;100.00
63907;BME280;50075;49.484;11.238;2023-01-29T09:04:35;99088.88;;;4.12;100.00
63907;BME280;50075;49.484;11.238;2023-01-29T09:07:00;99084.16;;;3.81;100.00
63907;BME280;50075;49.484;11.238;2023-01-29T09:09:25;99081.81;;;3.24;100.00
63907;BME280;50075;49.484;11.238;2023-01-29T09:11:51;99086.38;;;4.14;100.00
63907;BME280;50075;49.484;11.238;2023-01-29T09:14:16;99083.31;;;4.91;100.00
63907;BME280;50075;49.484;11.238;2023-01-29T09:16:41;99087.25;;;4.81;100.00
63907;BME280;50075;49.484;11.238;2023-01-29T09:19:07;99075.16;;;4.35;100.00
63907;BME280;50075;49.484;11.238;2023-01-29T09:21:32;99077.69;;;4.33;100.00
63907;BME280;50075;49.484;11.238;2023-01-29T09:23:57;99090.28;;;4.94;100.00
63907;BME280;50075;49.484;11.238;2023-01-29T09:26:23;99088.53;;;3.82;100.00
63907;BME280;50075;49.484;11.238;2023-01-29T09:28:48;99098.13;;;3.45;100.00
63907;BME280;50075;49.484;11.238;2023-01-29T09:31:13;99095.09;;;3.34;100.00
63907;BME280;50075;49.484;11.238;2023-01-29T09:33:39;99085.28;;;4.30;100.00
63907;BME280;50075;49.484;11.238;2023-01-29T09:36:05;99073.09;;;3.82;100.00
63907;BME280;50075;49.484;11.238;2023-01-29T09:38:30;99072.56;;;3.90;100.00
63907;BME280;50075;49.484;11.238;2023-01-29T09:41:08;99070.09;;;3.51;100.00
63907;BME280;50075;49.484;11.238;2023-01-29T09:43:46;99063.31;;;4.17;100.00
63907;BME280;50075;49.484;11.238;2023-01-29T09:46:18;99063.13;;;4.34;100.00
63907;BME280;50075;49.484;11.238;2023-01-29T09:48:45;99065.19;;;4.65;100.00
63907;BME280;50075;49.484;11.238;2023-01-29T09:51:37;99063.94;;;4.55;100.00
63907;BME280;50075;49.484;11.238;2023-01-29T09:56:42;99064.19;;;6.39;100.00
63907;BME280;50075;49.484;11.238;2023-01-29T09:59:10;99058.50;;;5.70;100.00
63907;BME280;50075;49.484;11.238;2023-01-29T10:02:01;99049.72;;;4.65;100.00
63907;BME280;50075;49.484;11.238;2023-01-29T10:04:40;99046.56;;;4.28;100.00
63907;BME280;50075;49.484;11.238;2023-01-29T10:10:12;99045.88;;;4.33;100.00
63907;BME280;50075;49.484;11.238;2023-01-29T10:23:29;99050.50;;;4.87;100.00
63907;BME280;50075;49.484;11.238;2023-01-29T10:25:55;99045.59;;;4.25;100.00
63907;BME280;50075;49.484;11.238;2023-01-29T10:28:35;99035.50;;;4.08;100.00
63907;BME280;50075;49.484;11.238;2023-01-29T10:31:14;99031.31;;;4.56;100.00
63907;BME280;50075;49.484;11.238;2023-01-29T10:33:48;99036.09;;;5.43;100.00
63907;BME280;50075;49.484;11.238;2023-01-29T10:36:20;99052.84;;;5.82;100.00
63907;BME280;50075;49.484;11.238;2023-01-29T10:38:47;99055.78;;;5.91;100.00
63907;BME280;50075;49.484;11.238;2023-01-29T10:44:26;99073.66;;;4.86;100.00
63907;BME280;50075;49.484;11.238;2023-01-29T10:49:53;99066.38;;;5.23;100.00
63907;BME280;50075;49.484;11.238;2023-01-29T10:52:38;99059.22;;;5.92;100.00
63907;BME280;50075;49.484;11.238;2023-01-29T10:58:09;99050.50;;;6.14;100.00
63907;BME280;50075;49.484;11.238;2023-01-29T11:00:40;99044.44;;;4.62;100.00
63907;BME280;50075;49.484;11.238;2023-01-29T11:03:21;99042.09;;;4.01;100.00
63907;BME280;50075;49.484;11.238;2023-01-29T11:06:02;99023.47;;;4.53;100.00
63907;BME280;50075;49.484;11.238;2023-01-29T11:08:33;99022.09;;;4.63;100.00
63907;BME280;50075;49.484;11.238;2023-01-29T11:13:39;99006.66;;;3.94;100.00
63907;BME280;50075;49.484;11.238;2023-01-29T11:16:07;98997.84;;;3.89;100.00
63907;BME280;50075;49.484;11.238;2023-01-29T11:21:14;98985.66;;;4.06;100.00
63907;BME280;50075;49.484;11.238;2023-01-29T11:23:40;98979.75;;;3.87;100.00
63907;BME280;50075;49.484;11.238;2023-01-29T11:26:07;98973.50;;;4.72;100.00
63907;BME280;50075;49.484;11.238;2023-01-29T11:31:26;98961.66;;;3.84;100.00
63907;BME280;50075;49.484;11.238;2023-01-29T11:34:02;98961.31;;;4.68;100.00
63907;BME280;50075;49.484;11.238;2023-01-29T11:36:34;98946.00;;;4.48;100.00
63907;BME280;50075;49.484;11.238;2023-01-29T11:39:21;98947.91;;;5.29;100.00
63907;BME280;50075;49.484;11.238;2023-01-29T11:41:56;98945.56;;;4.85;100.00
63907;BME280;50075;49.484;11.238;2023-01-29T11:44:34;98942.94;;;4.83;100.00
63907;BME280;50075;49.484;11.238;2023-01-29T11:49:52;98942.69;;;5.01;100.00
63907;BME280;50075;49.484;11.238;2023-01-29T11:52:20;98938.06;;;4.91;100.00
63907;BME280;50075;49.484;11.238;2023-01-29T11:57:23;98945.44;;;5.06;100.00
63907;BME280;50075;49.484;11.238;2023-01-29T11:59:51;98937.94;;;4.88;100.00
63907;BME280;50075;49.484;11.238;2023-01-29T12:04:51;98931.19;;;4.67;100.00
63907;BME280;50075;49.484;11.238;2023-01-29T12:07:18;98931.69;;;4.32;100.00
63907;BME280;50075;49.484;11.238;2023-01-29T12:09:55;98926.88;;;4.66;100.00
63907;BME280;50075;49.484;11.238;2023-01-29T12:12:35;98921.25;;;4.29;100.00
63907;BME280;50075;49.484;11.238;2023-01-29T12:17:35;98910.59;;;4.93;100.00
63907;BME280;50075;49.484;11.238;2023-01-29T12:20:12;98903.63;;;4.64;100.00
63907;BME280;50075;49.484;11.238;2023-01-29T12:22:44;98902.72;;;4.38;100.00
63907;BME280;50075;49.484;11.238;2023-01-29T12:25:39;98887.88;;;5.07;100.00
63907;BME280;50075;49.484;11.238;2023-01-29T12:31:07;98879.31;;;5.36;100.00
63907;BME280;50075;49.484;11.238;2023-01-29T12:33:57;98876.50;;;4.02;100.00
63907;BME280;50075;49.484;11.238;2023-01-29T12:36:32;98882.84;;;3.88;100.00
63907;BME280;50075;49.484;11.238;2023-01-29T12:39:00;98886.09;;;4.54;100.00
63907;BME280;50075;49.484;11.238;2023-01-29T12:44:12;98875.06;;;5.36;100.00
63907;BME280;50075;49.484;11.238;2023-01-29T12:46:43;98863.13;;;4.86;100.00
63907;BME280;50075;49.484;11.238;2023-01-29T12:49:21;98852.84;;;4.62;100.00
63907;BME280;50075;49.484;11.238;2023-01-29T12:52:08;98852.72;;;5.11;100.00
63907;BME280;50075;49.484;11.238;2023-01-29T12:54:44;98846.78;;;5.68;100.00
63907;BME280;50075;49.484;11.238;2023-01-29T12:57:24;98842.28;;;6.53;100.00
63907;BME280;50075;49.484;11.238;2023-01-29T13:00:00;98827.66;;;10.21;100.00
63907;BME280;50075;49.484;11.238;2023-01-29T13:04:58;98821.50;;;10.94;100.00
63907;BME280;50075;49.484;11.238;2023-01-29T13:07:30;98833.75;;;10.24;100.00
63907;BME280;50075;49.484;11.238;2023-01-29T13:10:03;98825.47;;;11.67;100.00
63907;BME280;50075;49.484;11.238;2023-01-29T13:12:32;98823.78;;;11.81;100.00
63907;BME280;50075;49.484;11.238;2023-01-29T13:15:05;98823.03;;;9.95;100.00
63907;BME280;50075;49.484;11.238;2023-01-29T13:17:42;98828.81;;;11.47;100.00
63907;BME280;50075;49.484;11.238;2023-01-29T13:20:18;98826.44;;;11.92;100.00
63907;BME280;50075;49.484;11.238;2023-01-29T13:22:46;98821.47;;;13.59;98.03
63907;BME280;50075;49.484;11.238;2023-01-29T13:25:17;98819.72;;;12.47;100.00
63907;BME280;50075;49.484;11.238;2023-01-29T13:27:44;98816.13;;;12.08;98.87
63907;BME280;50075;49.484;11.238;2023-01-29T13:32:51;98821.47;;;6.47;100.00
63907;BME280;50075;49.484;11.238;2023-01-29T13:35:20;98831.72;;;5.26;100.00
63907;BME280;50075;49.484;11.238;2023-01-29T13:37:50;98830.13;;;5.29;100.00
63907;BME280;50075;49.484;11.238;2023-01-29T13:40:27;98824.78;;;4.45;100.00
63907;BME280;50075;49.484;11.238;2023-01-29T13:42:55;98816.06;;;3.91;100.00
63907;BME280;50075;49.484;11.238;2023-01-29T13:47:50;98823.19;;;3.98;100.00
63907;BME280;50075;49.484;11.238;2023-01-29T13:50:35;98825.00;;;3.55;100.00
63907;BME280;50075;49.484;11.238;2023-01-29T13:53:03;98818.25;;;4.04;100.00
63907;BME280;50075;49.484;11.238;2023-01-29T13:55:37;98815.94;;;3.88;100.00
63907;BME280;50075;49.484;11.238;2023-01-29T13:58:04;98814.25;;;3.43;100.00
63907;BME280;50075;49.484;11.238;2023-01-29T14:10:30;98823.84;;;3.47;100.00
63907;BME280;50075;49.484;11.238;2023-01-29T14:15:33;98819.25;;;3.39;100.00
63907;BME280;50075;49.484;11.238;2023-01-29T14:20:38;98802.03;;;3.37;100.00
63907;BME280;50075;49.484;11.238;2023-01-29T14:23:06;98799.88;;;3.48;100.00
63907;BME280;50075;49.484;11.238;2023-01-29T14:25:36;98802.84;;;2.92;100.00
63907;BME280;50075;49.484;11.238;2023-01-29T14:28:03;98808.56;;;3.29;100.00
63907;BME280;50075;49.484;11.238;2023-01-29T14:30:38;98793.59;;;3.87;100.00
63907;BME280;50075;49.484;11.238;2023-01-29T14:33:21;98800.19;;;3.11;100.00
63907;BME280;50075;49.484;11.238;2023-01-29T14:35:49;98799.34;;;2.90;100.00
63907;BME280;50075;49.484;11.238;2023-01-29T14:38:15;98805.84;;;3.03;100.00
63907;BME280;50075;49.484;11.238;2023-01-29T14:40:44;98804.78;;;4.12;100.00
63907;BME280;50075;49.484;11.238;2023-01-29T14:43:20;98810.47;;;3.56;100.00
63907;BME280;50075;49.484;11.238;2023-01-29T14:45:49;98805.03;;;3.04;100.00
63907;BME280;50075;49.484;11.238;2023-01-29T14:51:05;98801.19;;;3.15;100.00
63907;BME280;50075;49.484;11.238;2023-01-29T14:53:43;98792.97;;;3.47;100.00
63907;BME280;50075;49.484;11.238;2023-01-29T14:56:20;98796.66;;;3.31;100.00
63907;BME280;50075;49.484;11.238;2023-01-29T14:58:53;98797.00;;;2.96;100.00
63907;BME280;50075;49.484;11.238;2023-01-29T15:01:25;98790.69;;;2.66;100.00
63907;BME280;50075;49.484;11.238;2023-01-29T15:06:49;98791.06;;;2.76;100.00